createdAt,value
2024-01-21T00:01:19.029Z,60.15
2024-01-21T00:03:45.815Z,49.88
2024-01-21T00:06:12.772Z,52.10
2024-01-21T00:08:39.597Z,58.58
2024-01-21T00:11:06.416Z,48.42
2024-01-21T00:13:33.053Z,56.85
2024-01-21T00:15:59.769Z,52.90
2024-01-21T00:18:26.482Z,55.65
2024-01-21T00:20:53.493Z,53.95
2024-01-21T00:23:21.182Z,58.95
2024-01-21T00:25:48.118Z,52.95
2024-01-21T00:28:15.001Z,46.95
2024-01-21T00:30:41.888Z,50.05
2024-01-21T00:33:08.580Z,51.50
2024-01-21T00:35:35.537Z,50.50
2024-01-21T00:38:02.290Z,52.50
2024-01-21T00:40:29.066Z,66.63
2024-01-21T00:43:00.288Z,57.05
2024-01-21T00:45:27.498Z,56.63
2024-01-21T00:47:54.321Z,58.80
2024-01-21T00:50:22.096Z,73.40
2024-01-21T00:52:48.858Z,46.83
2024-01-21T00:55:15.493Z,51.25
2024-01-21T00:57:42.207Z,60.40
2024-01-21T01:00:09.247Z,50.17
2024-01-21T01:02:36.053Z,55.08
2024-01-21T01:05:03.135Z,57.13
2024-01-21T01:07:29.808Z,58.45
2024-01-21T01:09:56.572Z,51.42
2024-01-21T01:12:23.284Z,53.22
2024-01-21T01:14:50.002Z,52.50
2024-01-21T01:17:16.791Z,54.72
2024-01-21T01:19:43.849Z,62.72
2024-01-21T01:22:13.570Z,59.55
2024-01-21T01:24:41.274Z,64.30
2024-01-21T01:27:08.202Z,57.53
2024-01-21T01:29:34.980Z,58.58
2024-01-21T01:32:01.569Z,54.75
2024-01-21T01:34:28.362Z,55.25
2024-01-21T01:36:55.147Z,57.95
2024-01-21T01:39:22.081Z,54.00
2024-01-21T01:41:48.773Z,54.67
2024-01-21T01:44:15.640Z,61.05
2024-01-21T01:46:42.549Z,62.65
2024-01-21T01:49:09.572Z,60.67
2024-01-21T01:51:37.904Z,57.13
2024-01-21T01:54:05.266Z,58.78
2024-01-21T01:56:31.988Z,54.40
2024-01-21T01:59:02.774Z,69.85
2024-01-21T02:01:30.274Z,57.75
2024-01-21T02:03:57.979Z,60.58
2024-01-21T02:06:24.945Z,58.00
2024-01-21T02:08:51.732Z,62.40
2024-01-21T02:11:18.477Z,62.60
2024-01-21T02:13:45.336Z,56.35
2024-01-21T02:16:12.373Z,51.60
2024-01-21T02:18:41.401Z,59.42
2024-01-21T02:21:08.120Z,59.60
2024-01-21T02:23:35.095Z,61.67
2024-01-21T02:26:01.869Z,55.20
2024-01-21T02:28:28.669Z,56.90
2024-01-21T02:30:55.496Z,64.18
2024-01-21T02:33:22.330Z,52.35
2024-01-21T02:35:49.048Z,56.25
2024-01-21T02:38:15.855Z,55.67
2024-01-21T02:40:42.501Z,62.03
2024-01-21T02:43:09.295Z,56.47
2024-01-21T02:45:38.660Z,71.20
2024-01-21T02:48:05.776Z,59.42
2024-01-21T02:50:32.570Z,60.00
2024-01-21T02:52:59.356Z,58.78
2024-01-21T02:55:26.012Z,51.47
2024-01-21T02:57:52.670Z,56.20
2024-01-21T03:00:19.618Z,50.72
2024-01-21T03:02:46.367Z,60.00
2024-01-21T03:05:13.456Z,60.33
2024-01-21T03:07:40.199Z,49.80
2024-01-21T03:10:07.154Z,52.97
2024-01-21T03:12:34.102Z,54.55
2024-01-21T03:15:00.763Z,51.70
2024-01-21T03:17:29.655Z,60.45
2024-01-21T03:19:56.489Z,54.05
2024-01-21T03:22:23.294Z,58.60
2024-01-21T03:24:50.083Z,50.17
2024-01-21T03:27:16.912Z,52.10
2024-01-21T03:29:43.646Z,63.63
2024-01-21T03:32:10.337Z,50.78
2024-01-21T03:34:42.996Z,49.47
2024-01-21T03:37:10.393Z,56.35
2024-01-21T03:39:37.300Z,60.70
2024-01-21T03:42:04.478Z,51.50
2024-01-21T03:44:31.211Z,51.78
2024-01-21T03:46:57.838Z,52.88
2024-01-21T03:49:25.411Z,47.97
2024-01-21T03:51:52.443Z,44.47
2024-01-21T03:54:19.448Z,44.78
2024-01-21T03:56:46.569Z,48.28
2024-01-21T03:59:13.613Z,44.38
2024-01-21T04:01:43.762Z,56.17
2024-01-21T04:04:11.646Z,60.53
2024-01-21T04:06:42.107Z,57.40
2024-01-21T04:09:09.714Z,52.87
2024-01-21T04:11:36.645Z,55.67
2024-01-21T04:14:03.528Z,56.05
2024-01-21T04:16:30.172Z,50.77
2024-01-21T04:18:57.095Z,46.38
2024-01-21T04:21:23.912Z,59.13
2024-01-21T04:23:51.071Z,51.17
2024-01-21T04:26:17.916Z,58.05
2024-01-21T04:28:44.747Z,48.80
2024-01-21T04:31:11.917Z,57.60
2024-01-21T04:33:38.775Z,59.97
2024-01-21T04:36:05.896Z,43.95
2024-01-21T04:38:32.734Z,48.53
2024-01-21T04:41:00.288Z,63.33
2024-01-21T04:43:27.155Z,45.00
2024-01-21T04:45:54.117Z,51.80
2024-01-21T04:48:20.930Z,47.33
2024-01-21T04:50:47.869Z,50.15
2024-01-21T04:53:14.721Z,45.33
2024-01-21T04:55:41.552Z,45.67
2024-01-21T04:58:08.258Z,44.22
2024-01-21T05:00:34.993Z,49.92
2024-01-21T05:03:01.692Z,47.58
2024-01-21T05:05:28.374Z,44.78
2024-01-21T05:07:55.236Z,45.30
2024-01-21T05:10:22.038Z,48.78
2024-01-21T05:12:49.134Z,52.60
2024-01-21T05:15:15.941Z,47.07
2024-01-21T05:17:42.929Z,49.90
2024-01-21T05:20:10.571Z,44.65
2024-01-21T05:22:37.263Z,44.30
2024-01-21T05:25:04.821Z,41.97
2024-01-21T05:27:32.737Z,52.87
2024-01-21T05:29:59.449Z,46.97
2024-01-21T05:32:26.704Z,39.75
2024-01-21T05:34:53.528Z,38.88
2024-01-21T05:37:20.327Z,44.63
2024-01-21T05:39:47.332Z,50.33
2024-01-21T05:42:14.172Z,47.63
2024-01-21T05:44:41.001Z,49.97
2024-01-21T05:47:07.753Z,40.67
2024-01-21T05:49:34.853Z,47.57
2024-01-21T05:52:01.832Z,52.53
2024-01-21T05:54:28.902Z,53.13
2024-01-21T05:56:55.724Z,47.17
2024-01-21T05:59:22.501Z,49.17
2024-01-21T06:01:50.233Z,41.83
2024-01-21T06:04:17.520Z,52.33
2024-01-21T06:06:45.196Z,49.07
2024-01-21T06:09:12.664Z,49.00
2024-01-21T06:11:40.165Z,45.80
2024-01-21T06:14:06.822Z,49.50
2024-01-21T06:16:33.955Z,44.37
2024-01-21T06:19:01.252Z,51.30
2024-01-21T06:21:28.545Z,54.00
2024-01-21T06:23:55.481Z,43.97
2024-01-21T06:26:23.847Z,50.17
2024-01-21T06:28:51.058Z,52.27
2024-01-21T06:31:18.172Z,55.93
2024-01-21T06:33:45.198Z,45.77
2024-01-21T06:36:12.205Z,57.63
2024-01-21T06:38:41.873Z,95.03
2024-01-21T06:41:08.670Z,125.47
2024-01-21T06:43:35.321Z,108.90
2024-01-21T06:46:02.081Z,69.85
2024-01-21T06:48:29.630Z,58.33
2024-01-21T06:50:56.782Z,55.70
2024-01-21T06:53:23.723Z,47.83
2024-01-21T06:55:51.046Z,47.73
2024-01-21T06:58:17.894Z,49.40
2024-01-21T07:00:46.997Z,57.25
2024-01-21T07:03:14.044Z,52.23
2024-01-21T07:05:40.882Z,51.00
2024-01-21T07:08:08.267Z,54.80
2024-01-21T07:10:34.863Z,41.53
2024-01-21T07:13:01.392Z,58.40
2024-01-21T07:15:27.988Z,46.15
2024-01-21T07:17:54.747Z,45.73
2024-01-21T07:20:21.589Z,48.08
2024-01-21T07:22:48.228Z,48.77
2024-01-21T07:25:15.920Z,59.85
2024-01-21T07:27:44.063Z,50.05
2024-01-21T07:30:12.103Z,46.28
2024-01-21T07:32:39.944Z,43.60
2024-01-21T07:35:07.527Z,52.53
2024-01-21T07:37:34.153Z,50.00
2024-01-21T07:40:00.899Z,54.27
2024-01-21T07:42:28.089Z,49.95
2024-01-21T07:44:54.804Z,52.07
2024-01-21T07:47:21.362Z,55.73
2024-01-21T07:49:48.241Z,53.50
2024-01-21T07:52:17.693Z,54.17
2024-01-21T07:54:44.691Z,55.30
2024-01-21T07:57:11.497Z,51.63
2024-01-21T07:59:38.093Z,52.33
2024-01-21T08:02:04.816Z,55.20
2024-01-21T08:04:31.530Z,45.20
2024-01-21T08:06:58.171Z,48.70
2024-01-21T08:09:26.149Z,42.78
2024-01-21T08:11:52.852Z,44.70
2024-01-21T08:14:19.381Z,44.50
2024-01-21T08:16:45.928Z,55.63
2024-01-21T08:19:12.806Z,51.25
2024-01-21T08:21:39.422Z,48.17
2024-01-21T08:24:06.020Z,51.95
2024-01-21T08:26:32.535Z,53.50
2024-01-21T08:28:59.413Z,60.95
2024-01-21T08:31:26.273Z,55.85
2024-01-21T08:33:52.983Z,48.30
2024-01-21T08:36:19.694Z,43.85
2024-01-21T08:38:46.198Z,44.47
2024-01-21T08:41:12.806Z,33.95
2024-01-21T08:43:39.312Z,51.28
2024-01-21T08:46:08.374Z,54.25
2024-01-21T08:48:35.088Z,50.22
2024-01-21T08:51:01.753Z,55.00
2024-01-21T08:53:28.308Z,52.58
2024-01-21T08:55:55.037Z,50.55
2024-01-21T08:58:21.557Z,52.25
2024-01-21T09:00:48.289Z,56.20
2024-01-21T09:03:16.085Z,52.67
2024-01-21T09:05:42.944Z,48.55
2024-01-21T09:08:09.661Z,51.58
2024-01-21T09:10:36.228Z,49.50
2024-01-21T09:13:02.869Z,54.50
2024-01-21T09:15:29.614Z,49.95
2024-01-21T09:17:56.519Z,41.55
2024-01-21T09:20:23.089Z,51.40
2024-01-21T09:22:49.564Z,54.60
2024-01-21T09:25:16.150Z,47.25
2024-01-21T09:27:42.764Z,51.45
2024-01-21T09:30:10.369Z,43.95
2024-01-21T09:32:36.997Z,44.50
2024-01-21T09:35:03.732Z,43.22
2024-01-21T09:37:30.231Z,39.97
2024-01-21T09:39:56.889Z,35.95
2024-01-21T09:42:23.716Z,35.83
2024-01-21T09:44:50.396Z,40.00
2024-01-21T09:47:17.659Z,38.05
2024-01-21T09:49:45.452Z,33.83
2024-01-21T09:52:12.609Z,37.65
2024-01-21T09:54:39.220Z,29.65
2024-01-21T09:57:07.283Z,34.70
2024-01-21T09:59:33.909Z,32.33
2024-01-21T10:02:00.496Z,29.80
2024-01-21T10:04:28.277Z,28.92
2024-01-21T10:06:56.349Z,25.25
2024-01-21T10:09:23.569Z,23.20
2024-01-21T10:11:51.318Z,18.73
2024-01-21T10:14:17.830Z,19.85
2024-01-21T10:16:44.692Z,24.77
2024-01-21T10:19:17.907Z,21.08
2024-01-21T10:21:44.485Z,31.45
2024-01-21T10:24:11.769Z,27.15
2024-01-21T10:26:38.775Z,27.52
2024-01-21T10:29:05.280Z,23.30
2024-01-21T10:31:35.153Z,22.77
2024-01-21T10:34:03.480Z,19.65
2024-01-21T10:36:33.029Z,19.45
2024-01-21T10:38:59.788Z,24.90
2024-01-21T10:41:31.321Z,19.25
2024-01-21T10:43:58.931Z,18.95
2024-01-21T10:46:26.601Z,18.13
2024-01-21T10:48:57.393Z,19.58
2024-01-21T10:51:24.627Z,24.17
2024-01-21T10:53:52.743Z,24.42
2024-01-21T10:56:20.360Z,22.25
2024-01-21T10:58:48.629Z,23.48
2024-01-21T11:01:16.404Z,26.88
2024-01-21T11:03:44.819Z,28.15
2024-01-21T11:06:12.086Z,29.15
2024-01-21T11:08:43.208Z,24.30
2024-01-21T11:11:10.042Z,33.60
2024-01-21T11:13:56.198Z,33.47
2024-01-21T11:16:31.936Z,30.33
2024-01-21T11:18:59.478Z,28.80
2024-01-21T11:21:27.017Z,27.80
2024-01-21T11:24:04.455Z,29.33
2024-01-21T11:26:31.650Z,29.08
2024-01-21T11:29:02.269Z,30.17
2024-01-21T11:31:35.685Z,32.35
2024-01-21T11:34:20.698Z,34.53
2024-01-21T11:36:47.719Z,31.00
2024-01-21T11:39:15.860Z,29.63
2024-01-21T11:41:43.356Z,30.13
2024-01-21T11:44:10.518Z,31.45
2024-01-21T11:46:37.890Z,34.40
2024-01-21T11:49:04.708Z,29.92
2024-01-21T11:51:31.480Z,40.38
2024-01-21T11:53:58.088Z,34.28
2024-01-21T11:56:24.801Z,32.78
2024-01-21T11:58:51.588Z,30.77
2024-01-21T12:01:18.466Z,41.13
2024-01-21T12:03:48.281Z,36.05
2024-01-21T12:06:15.387Z,43.17
2024-01-21T12:08:44.456Z,36.30
2024-01-21T12:11:11.062Z,34.08
2024-01-21T12:13:39.127Z,29.38
2024-01-21T12:16:06.083Z,32.78
2024-01-21T12:18:32.859Z,36.45
2024-01-21T12:20:59.672Z,31.23
2024-01-21T12:23:26.437Z,30.77
2024-01-21T12:25:54.638Z,40.60
2024-01-21T12:28:21.357Z,32.55
2024-01-21T12:30:48.777Z,31.50
2024-01-21T12:33:15.971Z,31.27
2024-01-21T12:35:43.912Z,32.00
2024-01-21T12:38:10.852Z,33.78
2024-01-21T12:40:37.475Z,28.77
2024-01-21T12:43:04.538Z,32.63
2024-01-21T12:45:31.343Z,41.15
2024-01-21T12:47:57.977Z,25.98
2024-01-21T12:50:25.253Z,28.70
2024-01-21T12:52:51.966Z,31.98
2024-01-21T12:55:18.618Z,27.90
2024-01-21T12:57:45.367Z,27.88
2024-01-21T13:00:12.384Z,24.60
2024-01-21T13:02:40.082Z,23.80
2024-01-21T13:05:07.068Z,30.02
2024-01-21T13:07:34.111Z,27.80
2024-01-21T13:10:00.740Z,34.30
2024-01-21T13:12:28.920Z,27.17
2024-01-21T13:14:56.317Z,28.08
2024-01-21T13:17:22.846Z,28.00
2024-01-21T13:19:49.517Z,30.08
2024-01-21T13:22:16.363Z,32.22
2024-01-21T13:24:43.012Z,29.67
2024-01-21T13:27:13.128Z,29.08
2024-01-21T13:29:58.603Z,22.30
2024-01-21T13:32:25.258Z,32.00
2024-01-21T13:34:52.323Z,30.92
2024-01-21T13:39:46.579Z,27.73
2024-01-21T13:42:13.586Z,33.28
2024-01-21T13:44:40.328Z,23.50
2024-01-21T13:47:07.312Z,40.47
2024-01-21T13:49:34.045Z,32.58
2024-01-21T13:52:02.985Z,28.25
2024-01-21T13:54:29.966Z,27.52
2024-01-21T13:56:56.633Z,25.70
2024-01-21T13:59:23.229Z,25.23
2024-01-21T14:01:57.701Z,30.15
2024-01-21T14:04:31.905Z,30.55
2024-01-21T14:06:58.447Z,31.25
2024-01-21T14:09:25.081Z,26.20
2024-01-21T14:11:51.693Z,28.85
2024-01-21T14:14:18.401Z,28.17
2024-01-21T14:16:44.969Z,22.55
2024-01-21T14:19:11.706Z,27.13
2024-01-21T14:21:38.293Z,39.80
2024-01-21T14:24:07.234Z,33.58
2024-01-21T14:26:36.389Z,29.17
2024-01-21T14:29:04.065Z,30.42
2024-01-21T14:31:30.694Z,31.38
2024-01-21T14:33:57.625Z,25.15
2024-01-21T14:36:24.418Z,27.35
2024-01-21T14:38:51.181Z,22.92
2024-01-21T14:41:17.893Z,27.50
2024-01-21T14:43:44.712Z,25.88
2024-01-21T14:46:11.690Z,31.45
2024-01-21T14:48:38.626Z,29.83
2024-01-21T14:51:05.528Z,28.30
2024-01-21T14:53:32.728Z,29.30
2024-01-21T14:56:00.011Z,29.77
2024-01-21T14:58:26.574Z,29.13
2024-01-21T15:00:53.604Z,32.35
2024-01-21T15:03:20.567Z,27.80
2024-01-21T15:05:47.242Z,30.92
2024-01-21T15:08:14.311Z,29.42
2024-01-21T15:10:43.265Z,29.65
2024-01-21T15:13:14.846Z,26.20
2024-01-21T15:15:41.759Z,28.52
2024-01-21T15:18:12.314Z,26.52
2024-01-21T15:20:44.126Z,30.67
2024-01-21T15:23:10.893Z,25.15
2024-01-21T15:25:37.590Z,32.58
2024-01-21T15:28:04.553Z,26.67
2024-01-21T15:30:31.710Z,24.90
2024-01-21T15:32:59.031Z,27.95
2024-01-21T15:35:25.786Z,29.30
2024-01-21T15:37:52.558Z,25.42
2024-01-21T15:40:19.236Z,28.88
2024-01-21T15:42:45.998Z,41.60
2024-01-21T15:45:13.541Z,31.15
2024-01-21T15:47:40.571Z,24.45
2024-01-21T15:50:08.282Z,25.25
2024-01-21T15:52:35.620Z,28.58
2024-01-21T15:55:06.001Z,35.33
2024-01-21T15:57:32.748Z,24.65
2024-01-21T15:59:59.543Z,32.55
2024-01-21T16:02:26.415Z,23.75
2024-01-21T16:04:53.748Z,22.85
2024-01-21T16:07:23.600Z,36.17
2024-01-21T16:09:51.080Z,31.33
2024-01-21T16:12:19.074Z,33.58
2024-01-21T16:14:45.990Z,36.75
2024-01-21T16:17:12.977Z,33.50
2024-01-21T16:19:39.878Z,35.03
2024-01-21T16:22:07.400Z,41.83
2024-01-21T16:24:34.499Z,46.50
2024-01-21T16:27:01.433Z,42.33
2024-01-21T16:29:28.688Z,47.97
2024-01-21T16:31:55.807Z,49.30
2024-01-21T16:34:22.587Z,50.33
2024-01-21T16:36:49.477Z,37.97
2024-01-21T16:39:17.432Z,30.73
2024-01-21T16:41:44.313Z,31.17
2024-01-21T16:44:11.628Z,37.38
2024-01-21T16:46:38.569Z,37.95
2024-01-21T16:49:07.334Z,38.28
2024-01-21T16:51:39.726Z,36.85
2024-01-21T16:54:11.918Z,31.60
2024-01-21T16:56:39.147Z,37.53
2024-01-21T16:59:05.808Z,38.45
2024-01-21T17:01:35.032Z,31.38
2024-01-21T17:04:01.985Z,37.50
2024-01-21T17:06:28.778Z,34.28
2024-01-21T17:08:56.588Z,39.35
2024-01-21T17:11:25.255Z,35.72
2024-01-21T17:13:52.064Z,45.33
2024-01-21T17:16:18.860Z,41.78
2024-01-21T17:18:46.048Z,41.90
2024-01-21T17:21:13.132Z,44.17
2024-01-21T17:23:40.213Z,43.22
2024-01-21T17:26:07.349Z,51.15
2024-01-21T17:28:33.998Z,48.35
2024-01-21T17:31:00.765Z,53.47
2024-01-21T17:33:27.924Z,66.55
2024-01-21T17:35:54.952Z,49.97
2024-01-21T17:38:21.911Z,58.70
2024-01-21T17:40:48.635Z,50.55
2024-01-21T17:43:15.270Z,44.65
2024-01-21T17:45:42.241Z,44.22
2024-01-21T17:48:09.305Z,49.90
2024-01-21T17:50:36.409Z,54.58
2024-01-21T17:53:03.244Z,56.15
2024-01-21T17:55:30.645Z,46.97
2024-01-21T17:57:57.363Z,45.47
2024-01-21T18:00:24.238Z,49.47
2024-01-21T18:02:51.244Z,44.70
2024-01-21T18:05:18.569Z,45.55
2024-01-21T18:07:45.609Z,42.10
2024-01-21T18:10:12.338Z,40.50
2024-01-21T18:12:39.352Z,47.85
2024-01-21T18:15:06.403Z,43.00
2024-01-21T18:17:35.104Z,49.05
2024-01-21T18:20:03.037Z,41.65
2024-01-21T18:22:32.100Z,46.90
2024-01-21T18:24:58.896Z,39.72
2024-01-21T18:27:25.675Z,45.95
2024-01-21T18:29:52.761Z,49.05
2024-01-21T18:32:24.862Z,49.20
2024-01-21T18:34:52.854Z,51.13
2024-01-21T18:37:20.162Z,48.80
2024-01-21T18:39:47.225Z,39.40
2024-01-21T18:42:14.406Z,49.10
2024-01-21T18:44:41.338Z,43.83
2024-01-21T18:47:08.149Z,39.65
2024-01-21T18:49:35.578Z,47.97
2024-01-21T18:52:05.923Z,48.90
2024-01-21T18:54:36.272Z,41.28
2024-01-21T18:57:03.451Z,46.58
2024-01-21T18:59:30.369Z,37.83
2024-01-21T19:01:57.885Z,48.40
2024-01-21T19:04:29.716Z,50.03
2024-01-21T19:07:02.322Z,43.40
2024-01-21T19:09:30.430Z,38.38
2024-01-21T19:11:57.517Z,34.00
2024-01-21T19:14:24.369Z,34.90
2024-01-21T19:16:51.193Z,38.92
2024-01-21T19:19:18.270Z,36.00
2024-01-21T19:21:45.230Z,34.95
2024-01-21T19:24:12.109Z,36.28
2024-01-21T19:26:39.171Z,38.03
2024-01-21T19:29:07.429Z,42.45
2024-01-21T19:31:34.711Z,39.13
2024-01-21T19:34:02.382Z,39.90
2024-01-21T19:36:29.477Z,41.47
2024-01-21T19:38:56.435Z,42.22
2024-01-21T19:41:23.421Z,36.90
2024-01-21T19:43:50.254Z,41.30
2024-01-21T19:46:17.169Z,43.03
2024-01-21T19:48:44.493Z,46.50
2024-01-21T19:51:11.791Z,41.40
2024-01-21T19:53:38.898Z,44.47
2024-01-21T19:56:05.819Z,40.40
2024-01-21T19:58:32.673Z,38.78
2024-01-21T20:00:59.583Z,39.42
2024-01-21T20:03:26.681Z,44.90
2024-01-21T20:05:54.916Z,30.95
2024-01-21T20:08:21.727Z,36.50
2024-01-21T20:10:51.948Z,34.33
2024-01-21T20:13:19.505Z,31.48
2024-01-21T20:15:46.726Z,35.67
2024-01-21T20:18:13.708Z,44.45
2024-01-21T20:20:40.721Z,36.08
2024-01-21T20:23:08.140Z,34.35
2024-01-21T20:25:35.245Z,33.45
2024-01-21T20:28:02.207Z,35.75
2024-01-21T20:30:30.628Z,46.30
2024-01-21T20:32:57.984Z,37.85
2024-01-21T20:35:24.674Z,44.58
2024-01-21T20:37:52.152Z,38.45
2024-01-21T20:40:19.102Z,34.03
2024-01-21T20:42:45.766Z,38.50
2024-01-21T20:45:12.542Z,33.75
2024-01-21T20:47:39.496Z,36.67
2024-01-21T20:50:06.507Z,31.95
2024-01-21T20:52:33.213Z,38.45
2024-01-21T20:55:01.559Z,38.05
2024-01-21T20:57:29.031Z,42.13
2024-01-21T20:59:55.682Z,43.67
2024-01-21T21:02:22.474Z,36.28
2024-01-21T21:04:49.468Z,45.45
2024-01-21T21:07:16.411Z,47.95
2024-01-21T21:09:43.295Z,43.40
2024-01-21T21:12:10.048Z,55.00
2024-01-21T21:14:37.059Z,41.15
2024-01-21T21:17:03.976Z,44.08
2024-01-21T21:19:30.632Z,50.47
2024-01-21T21:21:58.093Z,58.17
2024-01-21T21:24:24.840Z,50.17
2024-01-21T21:26:51.736Z,43.55
2024-01-21T21:29:18.726Z,42.97
2024-01-21T21:31:45.500Z,50.25
2024-01-21T21:34:12.560Z,41.67
2024-01-21T21:36:39.424Z,37.63
2024-01-21T21:39:06.208Z,41.45
2024-01-21T21:41:33.978Z,40.47
2024-01-21T21:44:01.006Z,47.03
2024-01-21T21:46:27.950Z,49.15
2024-01-21T21:48:54.918Z,46.60
2024-01-21T21:51:22.325Z,41.65
2024-01-21T21:53:50.441Z,47.03
2024-01-21T21:56:18.507Z,49.70
2024-01-21T21:58:45.447Z,45.78
2024-01-21T22:01:12.763Z,44.72
2024-01-21T22:03:39.694Z,46.58
2024-01-21T22:06:08.222Z,58.88
2024-01-21T22:08:36.017Z,51.70
2024-01-21T22:11:03.519Z,48.97
2024-01-21T22:13:32.482Z,43.38
2024-01-21T22:15:59.393Z,56.75
2024-01-21T22:18:26.107Z,57.35
2024-01-21T22:20:53.036Z,63.50
2024-01-21T22:23:19.954Z,49.90
2024-01-21T22:25:46.639Z,50.15
2024-01-21T22:28:13.420Z,63.78
2024-01-21T22:30:40.107Z,46.50
2024-01-21T22:33:06.843Z,54.22
2024-01-21T22:35:33.738Z,48.45
2024-01-21T22:38:00.471Z,50.55
2024-01-21T22:40:27.232Z,54.17
2024-01-21T22:42:53.933Z,45.50
2024-01-21T22:45:20.710Z,56.33
2024-01-21T22:47:47.543Z,47.45
2024-01-21T22:50:14.989Z,54.40
2024-01-21T22:52:41.850Z,44.72
2024-01-21T22:55:09.652Z,52.53
2024-01-21T22:57:36.460Z,57.63
2024-01-21T23:00:06.231Z,48.88
2024-01-21T23:02:33.375Z,53.10
2024-01-21T23:05:01.952Z,53.10
2024-01-21T23:07:28.855Z,45.40
2024-01-21T23:09:55.740Z,39.25
2024-01-21T23:12:22.381Z,52.40
2024-01-21T23:14:49.093Z,41.97
2024-01-21T23:17:15.861Z,48.25
2024-01-21T23:19:43.769Z,43.88
2024-01-21T23:22:10.698Z,51.22
2024-01-21T23:24:37.470Z,45.42
2024-01-21T23:27:04.900Z,42.88
2024-01-21T23:29:31.820Z,53.30
2024-01-21T23:31:58.790Z,42.00
2024-01-21T23:34:25.821Z,47.05
2024-01-21T23:36:52.621Z,47.17
2024-01-21T23:39:21.775Z,47.67
2024-01-21T23:41:48.791Z,40.25
2024-01-21T23:44:15.510Z,43.35
2024-01-21T23:46:42.192Z,40.15
2024-01-21T23:49:09.072Z,40.53
2024-01-21T23:51:42.005Z,39.20
2024-01-21T23:54:08.739Z,38.42
2024-01-21T23:56:35.561Z,45.95
2024-01-21T23:59:02.524Z,41.05
